Time;durP1;ratioP1;P1;durP2;ratioP2;P2;SDS_P1;SDS_P2;PMS_P1;PMS_P2;Temp;Humidity;BMP_temperature;BMP_pressure;BME280_temperature;BME280_humidity;BME280_pressure;Samples;Min_cycle;Max_cycle;Signal;HPM_P1;HPM_P2
2021/08/18 00:01:08;;;;;;;35.20;30.27;;;14.90;99.90;;;;;;5062857;28;20838;-70
2021/08/18 00:03:37;;;;;;;33.30;28.63;;;15.00;99.90;;;;;;5059549;28;21001;-69
2021/08/18 00:06:04;;;;;;;31.97;28.87;;;15.00;99.90;;;;;;5056857;28;20459;-70
2021/08/18 00:08:33;;;;;;;32.70;29.10;;;15.00;99.90;;;;;;5059597;28;20467;-72
2021/08/18 00:11:01;;;;;;;32.40;29.10;;;15.00;99.90;;;;;;5056923;28;20566;-69
2021/08/18 00:13:28;;;;;;;34.00;30.37;;;15.00;99.90;;;;;;5060952;28;20462;-70
2021/08/18 00:15:56;;;;;;;31.83;28.53;;;15.00;99.90;;;;;;5055834;28;20525;-71
2021/08/18 00:18:23;;;;;;;31.30;28.30;;;15.10;99.90;;;;;;5053770;28;20773;-71
2021/08/18 00:20:53;;;;;;;32.30;29.07;;;15.10;99.90;;;;;;5054857;28;20471;-71
2021/08/18 00:23:20;;;;;;;32.23;28.90;;;15.10;99.90;;;;;;5056229;28;20463;-70
2021/08/18 00:25:48;;;;;;;33.67;30.27;;;15.10;99.90;;;;;;5059772;28;20569;-72
2021/08/18 00:28:17;;;;;;;32.27;29.37;;;15.10;99.90;;;;;;5058437;28;20997;-71
2021/08/18 00:30:45;;;;;;;33.70;30.30;;;15.10;99.90;;;;;;5060868;28;20561;-71
2021/08/18 00:33:12;;;;;;;33.60;30.07;;;15.10;99.90;;;;;;5054753;28;20456;-70
2021/08/18 00:35:38;;;;;;;32.60;29.50;;;15.20;99.90;;;;;;5056218;28;20464;-69
2021/08/18 00:38:07;;;;;;;31.27;28.20;;;15.20;99.90;;;;;;5054434;28;20463;-70
2021/08/18 00:40:35;;;;;;;30.53;27.83;;;15.20;99.90;;;;;;5056342;28;20458;-70
2021/08/18 00:43:02;;;;;;;33.93;26.90;;;15.20;99.90;;;;;;5055059;28;20942;-69
2021/08/18 00:45:29;;;;;;;31.07;28.17;;;15.20;99.90;;;;;;5054481;28;20455;-70
2021/08/18 00:47:58;;;;;;;31.90;28.87;;;15.20;99.90;;;;;;5048880;28;20790;-71
2021/08/18 00:50:27;;;;;;;30.87;27.87;;;15.10;99.90;;;;;;5056458;28;20853;-71
2021/08/18 00:52:56;;;;;;;31.50;28.40;;;15.20;99.90;;;;;;5055709;28;20448;-70
2021/08/18 00:55:28;;;;;;;30.17;27.07;;;15.20;99.90;;;;;;5053782;28;20524;-71
2021/08/18 00:57:56;;;;;;;28.70;25.80;;;15.10;99.90;;;;;;5051156;28;20469;-69
2021/08/18 01:00:25;;;;;;;31.00;27.90;;;15.10;99.90;;;;;;5055209;28;20464;-70
2021/08/18 01:02:52;;;;;;;30.60;27.40;;;15.10;99.90;;;;;;5055901;28;20494;-71
2021/08/18 01:05:22;;;;;;;30.10;27.03;;;15.10;99.90;;;;;;5057564;28;20971;-70
2021/08/18 01:07:52;;;;;;;32.40;28.80;;;15.10;99.90;;;;;;5057079;28;20462;-71
2021/08/18 01:10:21;;;;;;;37.23;29.70;;;15.10;99.90;;;;;;5055663;28;20471;-70
2021/08/18 01:12:52;;;;;;;31.33;28.23;;;15.20;99.90;;;;;;5061269;28;20471;-72
2021/08/18 01:15:20;;;;;;;34.23;30.83;;;15.20;99.90;;;;;;5050271;28;20452;-72
2021/08/18 01:17:49;;;;;;;30.60;27.70;;;15.30;99.90;;;;;;5054421;28;20479;-72
2021/08/18 01:20:18;;;;;;;34.13;30.67;;;15.30;99.90;;;;;;5054720;28;20460;-70
2021/08/18 01:22:46;;;;;;;32.03;28.83;;;15.30;99.90;;;;;;5051895;28;20834;-70
2021/08/18 01:25:14;;;;;;;39.17;29.20;;;15.30;99.90;;;;;;5052333;28;20543;-70
2021/08/18 01:27:47;;;;;;;32.20;28.77;;;15.20;99.90;;;;;;5053510;28;20447;-70
2021/08/18 01:30:16;;;;;;;30.97;27.83;;;15.20;99.90;;;;;;5059551;28;20463;-71
2021/08/18 01:32:46;;;;;;;34.97;30.47;;;15.30;99.90;;;;;;5054111;28;20452;-72
2021/08/18 01:35:24;;;;;;;31.53;28.27;;;15.20;99.90;;;;;;5052185;28;20452;-71
2021/08/18 01:37:52;;;;;;;32.63;29.30;;;15.30;99.90;;;;;;5060023;28;20460;-72
2021/08/18 01:40:19;;;;;;;30.17;27.27;;;15.20;99.90;;;;;;5055461;28;20505;-71
2021/08/18 01:42:47;;;;;;;31.40;28.13;;;15.20;99.90;;;;;;5062024;28;20599;-72
2021/08/18 01:45:23;;;;;;;32.97;29.67;;;15.20;99.90;;;;;;5058383;28;20459;-72
2021/08/18 01:47:50;;;;;;;32.10;28.93;;;15.20;99.90;;;;;;5052142;28;20444;-70
2021/08/18 01:50:17;;;;;;;33.87;30.57;;;15.30;99.90;;;;;;5051153;28;20459;-73
2021/08/18 01:52:48;;;;;;;33.40;29.97;;;15.30;99.90;;;;;;5056098;28;20956;-70
2021/08/18 01:55:16;;;;;;;31.07;28.03;;;15.30;99.90;;;;;;5056250;28;20467;-71
2021/08/18 01:57:45;;;;;;;31.93;28.67;;;15.30;99.90;;;;;;5055543;28;20451;-71
2021/08/18 02:00:14;;;;;;;31.90;28.40;;;15.30;99.90;;;;;;5058395;28;20451;-74
2021/08/18 02:02:44;;;;;;;30.73;27.60;;;15.30;99.90;;;;;;5049925;28;20491;-72
2021/08/18 02:05:13;;;;;;;29.87;26.63;;;15.30;99.90;;;;;;5056370;28;20962;-73
2021/08/18 02:07:41;;;;;;;33.07;28.70;;;15.20;99.90;;;;;;5049217;28;20452;-74
2021/08/18 02:10:13;;;;;;;30.80;27.60;;;15.20;99.90;;;;;;5050563;28;20464;-71
2021/08/18 02:12:40;;;;;;;30.00;26.50;;;15.30;99.90;;;;;;5055770;28;20452;-70
2021/08/18 02:15:10;;;;;;;29.90;26.83;;;15.30;99.90;;;;;;5055422;28;20801;-73
2021/08/18 02:17:37;;;;;;;30.53;27.53;;;15.30;99.90;;;;;;5061254;28;20456;-74
2021/08/18 02:20:10;;;;;;;30.10;27.03;;;15.30;99.90;;;;;;5054845;28;20493;-70
2021/08/18 02:22:37;;;;;;;33.40;29.90;;;15.30;99.90;;;;;;5054373;28;20997;-72
2021/08/18 02:25:08;;;;;;;30.83;27.83;;;15.20;99.90;;;;;;5055989;28;20478;-71
2021/08/18 02:27:36;;;;;;;31.93;28.33;;;15.20;99.90;;;;;;5059857;28;20458;-70
2021/08/18 02:30:05;;;;;;;32.17;28.83;;;15.20;99.90;;;;;;5064165;28;20466;-73
2021/08/18 02:32:32;;;;;;;31.80;28.37;;;15.30;99.90;;;;;;5062291;28;20949;-70
2021/08/18 02:34:59;;;;;;;30.07;27.17;;;15.30;99.90;;;;;;5057587;28;20512;-71
2021/08/18 02:37:27;;;;;;;32.13;29.17;;;15.30;99.90;;;;;;5061865;28;20466;-74
2021/08/18 02:39:54;;;;;;;29.93;26.93;;;15.30;99.90;;;;;;5052573;28;20455;-70
2021/08/18 02:42:21;;;;;;;31.43;28.50;;;15.30;99.90;;;;;;5059262;28;20478;-70
2021/08/18 02:44:49;;;;;;;30.90;27.87;;;15.30;99.90;;;;;;5056839;28;20459;-70
2021/08/18 02:47:16;;;;;;;29.43;26.83;;;15.30;99.90;;;;;;5059127;28;20546;-73
2021/08/18 02:49:44;;;;;;;31.00;27.83;;;15.30;99.90;;;;;;5057524;28;20961;-71
2021/08/18 02:52:11;;;;;;;30.93;28.03;;;15.20;99.90;;;;;;5051061;28;20456;-71
2021/08/18 02:54:40;;;;;;;31.83;28.83;;;15.20;99.90;;;;;;5055545;28;20475;-70
2021/08/18 02:57:07;;;;;;;30.03;26.53;;;15.30;99.90;;;;;;5056879;28;20968;-70
2021/08/18 02:59:34;;;;;;;27.83;25.00;;;15.30;99.90;;;;;;5061839;28;20456;-72
2021/08/18 03:02:01;;;;;;;31.97;27.03;;;15.30;99.90;;;;;;5057875;28;20490;-71
2021/08/18 03:04:29;;;;;;;28.20;25.70;;;15.20;99.90;;;;;;5055539;28;20474;-70
2021/08/18 03:06:57;;;;;;;28.57;25.80;;;15.20;99.90;;;;;;5056275;28;20951;-71
2021/08/18 03:09:25;;;;;;;29.90;26.90;;;15.20;99.90;;;;;;5061293;28;20489;-70
2021/08/18 03:11:54;;;;;;;31.77;28.30;;;15.20;99.90;;;;;;5055432;28;20463;-70
2021/08/18 03:14:22;;;;;;;29.87;27.03;;;15.20;99.90;;;;;;5050332;28;20464;-70
2021/08/18 03:16:49;;;;;;;29.60;26.70;;;15.20;99.90;;;;;;5065735;28;20821;-72
2021/08/18 03:19:16;;;;;;;30.23;27.13;;;15.20;99.90;;;;;;5059596;28;20459;-70
2021/08/18 03:21:44;;;;;;;35.73;28.67;;;15.30;99.90;;;;;;5059678;28;20838;-72
2021/08/18 03:24:12;;;;;;;31.07;27.77;;;15.20;99.90;;;;;;5056247;28;20460;-71
2021/08/18 03:26:39;;;;;;;32.10;28.57;;;15.30;99.90;;;;;;5055138;28;20549;-70
2021/08/18 03:29:08;;;;;;;33.27;28.67;;;15.30;99.90;;;;;;5061106;28;20458;-70
2021/08/18 03:31:36;;;;;;;34.70;28.83;;;15.30;99.90;;;;;;5058987;28;20470;-70
2021/08/18 03:34:04;;;;;;;34.20;30.50;;;15.40;99.90;;;;;;5057276;28;20995;-74
2021/08/18 03:36:32;;;;;;;33.13;29.67;;;15.40;99.90;;;;;;5057476;28;20464;-72
2021/08/18 03:38:58;;;;;;;31.07;27.60;;;15.40;99.90;;;;;;5060267;28;20464;-71
2021/08/18 03:41:26;;;;;;;32.43;28.67;;;15.40;99.90;;;;;;5057396;28;20472;-71
2021/08/18 03:43:53;;;;;;;36.83;30.60;;;15.40;99.90;;;;;;5056536;28;21243;-70
2021/08/18 03:46:21;;;;;;;36.17;32.30;;;15.40;99.90;;;;;;5060151;28;20811;-70
2021/08/18 03:48:48;;;;;;;38.53;30.20;;;15.40;99.90;;;;;;5058750;28;20794;-73
2021/08/18 03:51:16;;;;;;;35.70;31.40;;;15.40;99.90;;;;;;5053567;28;20605;-72
2021/08/18 03:53:43;;;;;;;34.63;30.63;;;15.40;99.90;;;;;;5053601;28;20529;-71
2021/08/18 03:56:10;;;;;;;40.90;31.33;;;15.40;99.90;;;;;;5053388;28;20462;-70
2021/08/18 03:58:37;;;;;;;43.20;32.80;;;15.40;99.90;;;;;;5059308;28;20966;-70
2021/08/18 04:01:06;;;;;;;34.73;30.20;;;15.50;99.90;;;;;;5054381;28;20451;-70
2021/08/18 04:03:36;;;;;;;39.70;33.47;;;15.50;99.90;;;;;;5053007;28;20487;-70
2021/08/18 04:06:05;;;;;;;39.07;33.50;;;15.50;99.90;;;;;;5057668;28;20541;-72
2021/08/18 04:08:32;;;;;;;41.57;33.83;;;15.40;99.90;;;;;;5059771;28;20462;-70
2021/08/18 04:10:59;;;;;;;52.33;35.10;;;15.50;99.90;;;;;;5066111;28;20566;-70
2021/08/18 04:13:26;;;;;;;45.97;36.43;;;15.40;99.90;;;;;;5058613;28;20909;-69
2021/08/18 04:15:53;;;;;;;46.50;38.87;;;15.50;99.90;;;;;;5056086;28;20476;-70
2021/08/18 04:18:21;;;;;;;49.60;36.60;;;15.50;99.90;;;;;;5053233;28;20463;-72
2021/08/18 04:20:50;;;;;;;49.73;37.27;;;15.50;99.90;;;;;;5052764;28;20864;-72
2021/08/18 04:23:17;;;;;;;56.03;38.27;;;15.50;99.90;;;;;;5059334;28;20492;-70
2021/08/18 04:25:44;;;;;;;46.70;36.37;;;15.50;99.90;;;;;;5057723;28;20521;-70
2021/08/18 04:28:12;;;;;;;48.00;36.27;;;15.50;99.90;;;;;;5063331;28;20455;-71
2021/08/18 04:30:39;;;;;;;51.30;38.77;;;15.60;99.90;;;;;;5053203;28;20460;-71
2021/08/18 04:33:07;;;;;;;53.20;37.90;;;15.50;99.90;;;;;;5051383;28;20448;-70
2021/08/18 04:35:33;;;;;;;52.87;39.13;;;15.50;99.90;;;;;;5053353;28;20452;-70
2021/08/18 04:38:03;;;;;;;55.47;39.00;;;15.50;99.90;;;;;;5057334;28;20464;-70
2021/08/18 04:40:31;;;;;;;49.33;38.27;;;15.50;99.90;;;;;;5058997;28;21079;-70
2021/08/18 04:42:59;;;;;;;52.80;37.97;;;15.50;99.90;;;;;;5049185;28;20864;-73
2021/08/18 04:45:25;;;;;;;48.27;36.80;;;15.50;99.90;;;;;;5058108;28;20534;-70
2021/08/18 04:47:54;;;;;;;54.07;39.10;;;15.60;99.90;;;;;;5048430;28;20463;-73
2021/08/18 04:50:25;;;;;;;57.47;44.77;;;15.60;99.90;;;;;;5056458;28;20460;-71
2021/08/18 04:52:52;;;;;;;54.70;42.07;;;15.60;99.90;;;;;;5056808;28;20472;-71
2021/08/18 04:55:21;;;;;;;61.00;41.50;;;15.50;99.90;;;;;;5058409;28;20937;-71
2021/08/18 04:57:49;;;;;;;61.17;41.43;;;15.50;99.90;;;;;;5052400;28;20934;-71
2021/08/18 05:00:18;;;;;;;59.13;41.73;;;15.60;99.90;;;;;;5053400;28;20456;-69
2021/08/18 05:02:46;;;;;;;62.33;40.30;;;15.60;99.90;;;;;;5049646;28;20574;-69
2021/08/18 05:05:13;;;;;;;58.27;41.77;;;15.60;99.90;;;;;;5055048;28;20478;-70
2021/08/18 05:07:40;;;;;;;63.70;41.20;;;15.60;99.90;;;;;;5054357;28;20486;-70
2021/08/18 05:10:09;;;;;;;61.20;40.07;;;15.60;99.90;;;;;;5053697;28;20466;-69
2021/08/18 05:12:38;;;;;;;52.50;40.30;;;15.60;99.90;;;;;;5048356;28;20785;-69
2021/08/18 05:15:06;;;;;;;53.87;39.30;;;15.70;99.90;;;;;;5048163;28;20456;-69
2021/08/18 05:17:33;;;;;;;49.10;36.90;;;15.70;99.90;;;;;;5059788;28;20459;-68
2021/08/18 05:20:02;;;;;;;49.47;37.57;;;15.70;99.90;;;;;;5058018;28;20937;-69
2021/08/18 05:22:29;;;;;;;50.77;38.27;;;15.70;99.90;;;;;;5047010;28;20505;-69
2021/08/18 05:24:56;;;;;;;48.80;35.50;;;15.70;99.90;;;;;;5055621;28;20471;-71
2021/08/18 05:27:23;;;;;;;46.57;37.50;;;15.70;99.90;;;;;;5061616;28;20470;-72
2021/08/18 05:29:51;;;;;;;52.03;36.40;;;15.70;99.90;;;;;;5053172;28;20452;-69
2021/08/18 05:32:18;;;;;;;48.50;36.43;;;15.70;99.90;;;;;;5053872;28;21031;-72
2021/08/18 05:34:44;;;;;;;49.90;37.50;;;15.80;99.90;;;;;;5056268;28;20462;-68
2021/08/18 05:37:12;;;;;;;49.90;37.37;;;15.80;99.90;;;;;;5054189;28;20467;-69
2021/08/18 05:39:39;;;;;;;54.97;37.47;;;15.90;99.90;;;;;;5048679;28;20451;-71
2021/08/18 05:42:06;;;;;;;47.63;36.30;;;15.90;99.90;;;;;;5051516;28;20470;-70
2021/08/18 05:44:33;;;;;;;42.30;36.07;;;15.80;99.90;;;;;;5057115;28;20447;-69
2021/08/18 05:47:02;;;;;;;46.40;34.20;;;15.90;99.90;;;;;;5057515;28;20459;-73
2021/08/18 05:50:02;;;;;;;50.97;36.10;;;15.90;99.90;;;;;;5058435;28;20932;-73
2021/08/18 05:52:30;;;;;;;44.70;33.83;;;16.00;99.90;;;;;;5043278;28;20447;-69
2021/08/18 05:55:01;;;;;;;44.93;34.73;;;16.00;99.90;;;;;;5053109;28;20841;-69
2021/08/18 05:57:28;;;;;;;53.70;37.03;;;16.00;99.90;;;;;;5062414;28;20465;-70
2021/08/18 05:59:55;;;;;;;49.83;35.93;;;16.10;99.90;;;;;;5052126;28;20496;-71
2021/08/18 06:02:25;;;;;;;45.83;36.23;;;16.00;99.90;;;;;;5054937;28;20506;-70
2021/08/18 06:04:53;;;;;;;50.97;36.47;;;16.10;99.90;;;;;;5056213;28;20460;-73
2021/08/18 06:07:19;;;;;;;52.37;39.20;;;16.10;99.90;;;;;;5050983;28;20495;-70
2021/08/18 06:09:47;;;;;;;55.30;36.00;;;16.10;99.90;;;;;;5047754;28;20455;-70
2021/08/18 06:12:14;;;;;;;46.43;35.70;;;16.30;99.90;;;;;;5052883;28;20474;-70
2021/08/18 06:14:42;;;;;;;50.97;36.93;;;16.30;99.90;;;;;;5052078;28;20820;-70
2021/08/18 06:17:09;;;;;;;52.60;36.83;;;16.30;99.90;;;;;;5064867;28;20488;-70
2021/08/18 06:19:41;;;;;;;60.20;38.77;;;16.30;99.90;;;;;;5050846;28;20466;-70
2021/08/18 06:22:08;;;;;;;51.47;35.60;;;16.30;99.90;;;;;;5043970;28;20457;-69
2021/08/18 06:24:41;;;;;;;43.67;34.53;;;16.50;99.90;;;;;;5045287;28;20454;-70
2021/08/18 06:27:11;;;;;;;53.90;36.00;;;16.50;99.90;;;;;;5047298;28;20473;-70
2021/08/18 06:29:39;;;;;;;47.40;35.87;;;16.60;99.90;;;;;;5042844;28;20475;-72
2021/08/18 06:32:07;;;;;;;44.77;32.33;;;16.60;99.90;;;;;;5054083;28;20462;-70
2021/08/18 06:34:34;;;;;;;45.93;34.87;;;16.50;99.90;;;;;;5046262;28;20471;-71
2021/08/18 06:37:03;;;;;;;41.47;31.63;;;16.70;99.90;;;;;;5049758;28;20482;-73
2021/08/18 06:39:31;;;;;;;41.40;32.27;;;16.80;99.90;;;;;;5044211;28;20815;-70
2021/08/18 06:41:58;;;;;;;41.70;30.27;;;16.90;99.90;;;;;;5046502;28;20460;-73
2021/08/18 06:44:25;;;;;;;35.07;29.00;;;16.90;99.90;;;;;;5047852;28;20877;-70
2021/08/18 06:46:52;;;;;;;47.13;31.20;;;17.00;99.90;;;;;;5047272;28;20463;-71
2021/08/18 06:49:19;;;;;;;33.13;29.57;;;17.10;99.90;;;;;;5050197;28;20470;-70
2021/08/18 06:51:47;;;;;;;34.43;29.20;;;17.10;99.90;;;;;;5051009;28;20475;-72
2021/08/18 06:54:15;;;;;;;36.17;29.37;;;17.00;99.90;;;;;;5047905;28;20503;-69
2021/08/18 06:56:42;;;;;;;32.27;27.70;;;17.10;99.90;;;;;;5052749;28;20467;-72
2021/08/18 06:59:09;;;;;;;34.40;30.80;;;17.10;99.90;;;;;;5045873;28;20609;-70
2021/08/18 07:01:36;;;;;;;38.37;31.83;;;17.10;99.90;;;;;;5053267;28;20827;-70
2021/08/18 07:04:05;;;;;;;36.63;31.97;;;17.00;99.90;;;;;;5049080;28;20873;-71
2021/08/18 07:06:32;;;;;;;37.53;31.00;;;17.20;99.90;;;;;;5051803;28;20455;-71
2021/08/18 07:08:59;;;;;;;39.33;31.90;;;17.20;99.90;;;;;;5043275;28;20482;-72
2021/08/18 07:11:29;;;;;;;33.10;29.50;;;17.30;99.90;;;;;;5045212;28;20930;-69
2021/08/18 07:13:59;;;;;;;35.73;30.43;;;17.40;99.90;;;;;;5052348;28;20478;-72
2021/08/18 07:16:28;;;;;;;33.90;30.33;;;17.40;99.90;;;;;;5054908;28;20491;-70
2021/08/18 07:18:56;;;;;;;39.23;27.67;;;17.30;99.90;;;;;;5050967;28;20497;-70
2021/08/18 07:21:24;;;;;;;28.30;25.53;;;17.30;99.90;;;;;;5049859;28;20466;-71
2021/08/18 07:23:53;;;;;;;30.47;27.40;;;17.30;99.90;;;;;;5046249;28;20747;-69
2021/08/18 07:26:21;;;;;;;32.73;28.13;;;17.30;99.90;;;;;;5054116;28;20850;-71
2021/08/18 07:28:50;;;;;;;28.77;25.97;;;17.40;99.90;;;;;;5048158;28;20466;-70
2021/08/18 07:31:18;;;;;;;29.57;26.77;;;17.40;99.90;;;;;;5054547;28;20461;-72
2021/08/18 07:33:44;;;;;;;27.40;24.90;;;17.40;99.90;;;;;;5058122;28;20980;-70
2021/08/18 07:36:11;;;;;;;29.13;26.23;;;17.50;99.90;;;;;;5051439;28;20466;-70
2021/08/18 07:38:38;;;;;;;29.03;26.20;;;17.30;99.90;;;;;;5046259;28;20467;-72
2021/08/18 07:41:05;;;;;;;29.57;26.40;;;17.30;99.90;;;;;;5051382;28;20814;-72
2021/08/18 07:43:32;;;;;;;28.73;25.87;;;17.40;99.90;;;;;;5047668;28;20482;-70
2021/08/18 07:46:01;;;;;;;28.00;25.30;;;17.40;99.90;;;;;;5048311;28;20468;-69
2021/08/18 07:48:29;;;;;;;30.97;27.70;;;17.40;99.90;;;;;;5046618;28;20443;-69
2021/08/18 07:50:57;;;;;;;31.60;28.50;;;17.40;99.90;;;;;;5055187;28;20969;-69
2021/08/18 07:53:24;;;;;;;30.00;27.20;;;17.40;99.90;;;;;;5041382;28;21423;-70
2021/08/18 07:55:52;;;;;;;29.93;26.73;;;17.30;99.90;;;;;;5051182;28;20448;-69
2021/08/18 07:58:20;;;;;;;29.80;26.80;;;17.30;99.90;;;;;;5057006;28;20783;-70
2021/08/18 08:00:46;;;;;;;27.00;24.30;;;17.30;99.90;;;;;;5053712;28;20456;-70
2021/08/18 08:03:15;;;;;;;27.43;24.87;;;17.20;99.90;;;;;;5049642;28;20808;-70
2021/08/18 08:05:42;;;;;;;27.30;24.60;;;17.10;99.90;;;;;;5056656;28;20475;-71
2021/08/18 08:08:10;;;;;;;26.40;23.90;;;17.10;99.90;;;;;;5055854;28;20832;-72
2021/08/18 08:10:37;;;;;;;26.23;23.83;;;17.10;99.90;;;;;;5057791;28;20824;-71
2021/08/18 08:13:07;;;;;;;26.70;24.40;;;17.10;99.90;;;;;;5059262;28;20974;-71
2021/08/18 08:15:35;;;;;;;26.13;23.83;;;17.20;99.90;;;;;;5056369;28;20538;-70
2021/08/18 08:18:02;;;;;;;23.40;21.63;;;17.30;99.90;;;;;;5050179;28;20464;-74
2021/08/18 08:20:30;;;;;;;22.60;20.80;;;17.40;99.90;;;;;;5059602;28;20456;-72
2021/08/18 08:22:57;;;;;;;21.40;19.87;;;17.40;99.90;;;;;;5055494;28;20459;-71
2021/08/18 08:25:25;;;;;;;20.30;18.87;;;17.60;99.90;;;;;;5055510;28;20459;-71
2021/08/18 08:27:52;;;;;;;20.33;18.67;;;17.50;99.90;;;;;;5057153;28;20497;-71
2021/08/18 08:30:19;;;;;;;20.73;19.30;;;17.60;99.90;;;;;;5057067;28;20456;-71
2021/08/18 08:32:49;;;;;;;21.47;19.67;;;17.40;99.90;;;;;;5054039;28;20459;-71
2021/08/18 08:35:17;;;;;;;20.87;19.37;;;17.50;99.90;;;;;;5057969;28;20456;-71
2021/08/18 08:37:45;;;;;;;22.37;20.60;;;17.40;99.90;;;;;;5051402;28;20471;-73
2021/08/18 08:40:13;;;;;;;23.30;21.60;;;17.40;99.90;;;;;;5056267;28;20471;-71
2021/08/18 08:42:41;;;;;;;22.33;20.53;;;17.30;99.90;;;;;;5053679;28;20486;-71
2021/08/18 08:45:10;;;;;;;24.47;22.27;;;17.40;99.90;;;;;;5055041;28;20969;-72
2021/08/18 08:47:37;;;;;;;24.47;22.17;;;17.40;99.90;;;;;;5050730;28;20472;-74
2021/08/18 08:50:06;;;;;;;24.87;22.80;;;17.40;99.90;;;;;;5054469;28;20907;-72
2021/08/18 08:52:34;;;;;;;27.10;23.90;;;17.30;99.90;;;;;;5056988;28;20961;-72
2021/08/18 08:55:04;;;;;;;26.23;23.93;;;17.40;99.90;;;;;;5053710;28;20478;-73
2021/08/18 08:57:31;;;;;;;24.07;22.07;;;17.30;99.90;;;;;;5051406;28;20906;-72
2021/08/18 08:59:59;;;;;;;21.53;19.90;;;17.30;99.90;;;;;;5047377;28;20935;-71
2021/08/18 09:02:27;;;;;;;19.60;18.30;;;17.20;99.90;;;;;;5050203;28;20462;-70
2021/08/18 09:04:54;;;;;;;20.17;18.80;;;17.10;99.90;;;;;;5048174;28;20486;-70
2021/08/18 09:07:23;;;;;;;17.97;16.83;;;17.10;99.90;;;;;;5046331;28;21012;-71
2021/08/18 09:09:54;;;;;;;18.33;17.23;;;17.10;99.90;;;;;;5051906;28;20452;-71
2021/08/18 09:12:29;;;;;;;18.13;17.03;;;16.80;99.90;;;;;;5053776;28;20468;-69
2021/08/18 09:14:56;;;;;;;18.40;17.30;;;16.80;99.90;;;;;;5047370;28;20462;-70
2021/08/18 09:17:32;;;;;;;18.63;17.53;;;16.70;99.90;;;;;;5048600;28;20917;-73
2021/08/18 09:20:06;;;;;;;19.23;18.13;;;16.60;99.90;;;;;;5052604;28;20537;-71
2021/08/18 09:22:35;;;;;;;19.40;17.90;;;16.70;99.90;;;;;;5050064;28;20852;-70
2021/08/18 09:25:12;;;;;;;19.60;18.50;;;16.60;99.90;;;;;;5049034;28;20491;-72
2021/08/18 09:27:43;;;;;;;19.57;18.47;;;16.50;99.90;;;;;;5049598;28;20454;-71
2021/08/18 09:30:19;;;;;;;19.70;18.60;;;16.50;99.90;;;;;;5049469;28;20554;-72
2021/08/18 09:32:46;;;;;;;18.90;17.80;;;16.50;99.90;;;;;;5055408;28;20465;-71
2021/08/18 09:35:15;;;;;;;19.60;18.33;;;16.50;99.90;;;;;;5045843;28;20452;-71
2021/08/18 09:37:44;;;;;;;19.47;18.27;;;16.40;99.90;;;;;;5047537;28;20467;-70
2021/08/18 09:40:20;;;;;;;19.87;18.57;;;16.40;99.90;;;;;;5049276;28;20463;-74
2021/08/18 09:42:49;;;;;;;20.03;18.63;;;16.30;99.90;;;;;;5053491;28;20455;-71
2021/08/18 09:45:22;;;;;;;20.20;18.93;;;16.30;99.90;;;;;;5053446;28;20494;-71
2021/08/18 09:48:00;;;;;;;19.70;18.40;;;16.30;99.90;;;;;;5049478;28;20546;-73
2021/08/18 09:50:31;;;;;;;19.50;18.30;;;16.30;99.90;;;;;;5057526;28;20963;-71
2021/08/18 09:53:08;;;;;;;19.53;18.07;;;16.50;99.90;;;;;;5050639;28;20943;-70
2021/08/18 09:55:36;;;;;;;19.57;18.40;;;16.50;99.90;;;;;;5050225;28;20460;-72
2021/08/18 09:58:19;;;;;;;18.57;17.37;;;16.60;99.90;;;;;;5049200;28;20459;-69
2021/08/18 10:00:48;;;;;;;18.60;17.40;;;16.80;99.90;;;;;;5053788;28;20501;-70
2021/08/18 10:03:15;;;;;;;18.30;17.10;;;16.80;99.90;;;;;;5044245;28;20893;-70
2021/08/18 10:05:42;;;;;;;19.27;18.07;;;16.70;99.90;;;;;;5050180;28;20490;-72
2021/08/18 10:08:10;;;;;;;19.60;18.40;;;16.60;99.90;;;;;;5050678;28;20935;-73
2021/08/18 10:10:40;;;;;;;20.07;18.67;;;16.50;99.90;;;;;;5050721;28;20583;-69
2021/08/18 10:13:09;;;;;;;19.70;18.37;;;16.60;99.90;;;;;;5051177;28;20456;-69
2021/08/18 10:15:37;;;;;;;19.83;18.23;;;16.90;99.90;;;;;;5044011;28;20484;-70
2021/08/18 10:18:06;;;;;;;19.60;18.30;;;17.00;99.90;;;;;;5048554;28;20464;-69
2021/08/18 10:20:34;;;;;;;21.00;19.50;;;17.20;99.90;;;;;;5051102;28;20454;-71
2021/08/18 10:23:03;;;;;;;20.17;18.63;;;17.40;99.90;;;;;;5053222;28;20482;-69
2021/08/18 10:25:39;;;;;;;20.77;19.17;;;17.60;99.90;;;;;;5048944;28;20613;-70
2021/08/18 10:28:09;;;;;;;21.30;19.70;;;17.80;99.90;;;;;;5051382;28;20463;-69
2021/08/18 10:30:48;;;;;;;22.57;20.80;;;18.00;99.90;;;;;;5052931;28;20455;-70
2021/08/18 10:33:48;;;;;;;21.80;20.00;;;18.40;99.90;;;;;;5045365;28;20464;-71
2021/08/18 10:36:15;;;;;;;23.43;21.00;;;18.80;99.90;;;;;;5045187;28;20955;-72
2021/08/18 10:38:42;;;;;;;23.03;21.43;;;19.10;99.90;;;;;;5051233;28;20459;-71
2021/08/18 10:41:09;;;;;;;21.53;19.93;;;19.00;99.90;;;;;;5043230;28;20928;-68
2021/08/18 10:43:59;;;;;;;22.70;21.00;;;19.00;99.90;;;;;;5046037;28;20483;-69
2021/08/18 10:46:27;;;;;;;23.43;21.73;;;19.20;99.90;;;;;;5051660;28;20851;-71
2021/08/18 10:49:04;;;;;;;22.90;21.13;;;19.20;99.90;;;;;;5056911;28;21358;-69
2021/08/18 10:51:55;;;;;;;25.47;23.20;;;19.30;99.90;;;;;;5048601;28;20454;-68
2021/08/18 10:54:45;;;;;;;25.23;23.33;;;19.40;99.90;;;;;;5036726;28;21020;-69
2021/08/18 10:57:35;;;;;;;25.73;23.83;;;19.50;99.90;;;;;;5057383;28;20463;-73
2021/08/18 11:00:33;;;;;;;25.93;23.70;;;19.40;99.90;;;;;;5053492;28;20458;-69
2021/08/18 11:03:02;;;;;;;27.33;23.30;;;19.30;99.90;;;;;;5049302;28;20478;-69
2021/08/18 11:05:42;;;;;;;25.43;23.43;;;19.30;99.90;;;;;;5046840;28;20838;-72
2021/08/18 11:08:11;;;;;;;26.20;24.20;;;19.40;99.90;;;;;;5054607;28;20810;-73
2021/08/18 11:10:41;;;;;;;25.83;23.80;;;19.60;99.90;;;;;;5058134;28;20458;-69
2021/08/18 11:13:08;;;;;;;26.40;24.30;;;19.60;99.90;;;;;;5055350;28;20451;-69
2021/08/18 11:15:56;;;;;;;25.97;23.87;;;19.40;99.90;;;;;;5051739;28;20487;-69
2021/08/18 11:18:24;;;;;;;27.97;25.57;;;19.00;99.90;;;;;;5052775;28;20458;-69
2021/08/18 11:20:55;;;;;;;28.67;26.07;;;18.90;99.90;;;;;;5056225;28;20467;-68
2021/08/18 11:23:32;;;;;;;27.27;24.80;;;19.00;99.90;;;;;;5052850;28;20495;-69
2021/08/18 11:26:05;;;;;;;29.00;26.60;;;19.20;99.90;;;;;;5056142;28;20561;-70
2021/08/18 11:28:34;;;;;;;28.60;26.20;;;19.60;99.90;;;;;;5056799;28;20497;-70
2021/08/18 11:31:05;;;;;;;30.37;27.80;;;20.10;99.90;;;;;;5053592;28;20475;-71
2021/08/18 11:33:35;;;;;;;29.23;26.70;;;20.30;99.90;;;;;;5050426;28;20542;-70
2021/08/18 11:36:02;;;;;;;28.57;25.77;;;20.40;99.90;;;;;;5048434;28;20451;-71
2021/08/18 11:38:30;;;;;;;27.50;25.43;;;20.40;99.90;;;;;;5053615;28;20467;-69
2021/08/18 11:40:57;;;;;;;28.13;25.93;;;20.70;99.90;;;;;;5051535;28;20488;-71
2021/08/18 11:43:43;;;;;;;28.17;26.07;;;20.80;99.90;;;;;;5053096;28;20461;-69
2021/08/18 11:46:11;;;;;;;27.70;25.40;;;21.30;99.90;;;;;;5047309;28;20495;-69
2021/08/18 11:48:39;;;;;;;26.73;24.70;;;21.90;99.90;;;;;;5050583;28;20448;-70
2021/08/18 11:51:19;;;;;;;27.23;25.10;;;21.80;99.90;;;;;;5056290;28;20460;-69
2021/08/18 11:53:53;;;;;;;26.93;24.70;;;22.00;99.90;;;;;;5054425;28;20478;-70
2021/08/18 11:56:25;;;;;;;26.47;24.47;;;22.40;99.90;;;;;;5054450;28;20964;-71
2021/08/18 11:58:57;;;;;;;27.43;25.33;;;22.20;99.90;;;;;;5052732;28;20460;-70
2021/08/18 12:01:26;;;;;;;27.47;25.27;;;22.00;99.90;;;;;;5052678;28;20455;-70
2021/08/18 12:03:54;;;;;;;26.50;24.60;;;21.50;99.90;;;;;;5052196;28;20483;-70
2021/08/18 12:06:34;;;;;;;27.47;25.27;;;21.30;99.90;;;;;;5056664;28;20495;-73
2021/08/18 12:09:04;;;;;;;26.77;24.87;;;21.20;99.90;;;;;;5048769;28;20819;-69
2021/08/18 12:11:36;;;;;;;26.63;24.43;;;20.90;99.90;;;;;;5044924;28;20464;-70
2021/08/18 12:14:12;;;;;;;24.97;22.97;;;20.90;99.90;;;;;;5049395;28;20508;-69
2021/08/18 12:16:41;;;;;;;21.03;19.73;;;20.60;99.90;;;;;;5050531;28;20567;-72
2021/08/18 12:19:22;;;;;;;22.23;20.77;;;20.20;99.90;;;;;;5047219;28;20463;-70
2021/08/18 12:22:15;;;;;;;22.07;20.47;;;20.00;99.90;;;;;;5055047;28;20953;-70
2021/08/18 12:24:43;;;;;;;20.70;19.47;;;20.10;99.90;;;;;;5044130;28;20483;-69
2021/08/18 12:27:14;;;;;;;21.80;20.27;;;20.10;99.90;;;;;;5053199;28;20752;-69
2021/08/18 12:29:44;;;;;;;21.90;20.30;;;20.30;99.90;;;;;;5051806;28;20859;-69
2021/08/18 12:32:14;;;;;;;21.50;20.00;;;20.30;99.90;;;;;;5053083;28;20455;-71
2021/08/18 12:34:44;;;;;;;21.33;20.03;;;20.60;99.90;;;;;;5047162;28;20470;-70
2021/08/18 12:37:13;;;;;;;22.07;20.60;;;20.90;99.90;;;;;;5051580;28;20455;-69
2021/08/18 12:39:44;;;;;;;21.53;20.13;;;21.30;99.90;;;;;;5054213;28;20781;-70